createdAt,value
2023-04-07T00:00:04.819Z,42.29
2023-04-07T00:02:54.349Z,42.21
2023-04-07T00:05:25.420Z,42.59
2023-04-07T00:07:57.154Z,41.92
2023-04-07T00:10:29.152Z,41.99
2023-04-07T00:13:06.127Z,42.07
2023-04-07T00:15:38.272Z,42.48
2023-04-07T00:18:09.492Z,42.01
2023-04-07T00:20:43.477Z,42.72
2023-04-07T00:23:13.890Z,42.50
2023-04-07T00:25:44.681Z,42.70
2023-04-07T00:28:20.676Z,42.04
2023-04-07T00:30:50.322Z,42.48
2023-04-07T00:33:18.853Z,42.13
2023-04-07T00:35:54.446Z,42.26
2023-04-07T00:38:25.949Z,42.31
2023-04-07T00:41:01.412Z,42.36
2023-04-07T00:43:35.347Z,42.62
2023-04-07T00:46:25.539Z,42.36
2023-04-07T00:48:59.957Z,42.86
2023-04-07T00:51:34.740Z,42.68
2023-04-07T00:54:11.231Z,42.74
2023-04-07T00:56:42.552Z,42.54
2023-04-07T00:59:12.742Z,42.79
2023-04-07T01:01:51.684Z,42.94
2023-04-07T01:04:29.511Z,42.68
2023-04-07T01:07:13.476Z,43.20
2023-04-07T01:09:48.979Z,42.90
2023-04-07T01:12:24.270Z,43.09
2023-04-07T01:14:59.275Z,43.22
2023-04-07T01:17:46.804Z,43.44
2023-04-07T01:20:22.719Z,43.32
2023-04-07T01:23:03.385Z,43.27
2023-04-07T01:25:51.481Z,43.33
2023-04-07T01:28:42.283Z,43.40
2023-04-07T01:31:25.109Z,43.88
2023-04-07T01:34:05.215Z,43.29
2023-04-07T01:36:40.022Z,42.97
2023-04-07T01:39:09.023Z,42.80
2023-04-07T01:41:47.272Z,42.93
2023-04-07T01:44:27.664Z,43.18
2023-04-07T01:47:00.850Z,43.22
2023-04-07T01:49:43.082Z,42.90
2023-04-07T01:52:11.728Z,43.02
2023-04-07T01:54:41.285Z,43.21
2023-04-07T01:57:10.626Z,43.05
2023-04-07T01:59:39.627Z,42.43
2023-04-07T02:02:11.394Z,43.45
2023-04-07T02:04:49.911Z,42.53
2023-04-07T02:07:22.270Z,43.78
2023-04-07T02:09:58.492Z,43.33
2023-04-07T02:12:30.033Z,43.24
2023-04-07T02:15:16.740Z,42.98
2023-04-07T02:17:54.374Z,43.68
2023-04-07T02:20:24.784Z,43.51
2023-04-07T02:22:59.312Z,43.24
2023-04-07T02:25:31.646Z,43.89
2023-04-07T02:28:02.149Z,43.72
2023-04-07T02:30:32.724Z,43.66
2023-04-07T02:33:11.279Z,43.44
2023-04-07T02:35:42.166Z,43.36
2023-04-07T02:38:11.606Z,43.42
2023-04-07T02:40:40.526Z,44.05
2023-04-07T02:43:12.673Z,43.94
2023-04-07T02:45:43.955Z,44.42
2023-04-07T02:48:31.754Z,44.02
2023-04-07T02:51:00.894Z,43.41
2023-04-07T02:53:32.447Z,43.65
2023-04-07T02:56:03.248Z,43.62
2023-04-07T02:58:32.432Z,43.93
2023-04-07T03:01:01.706Z,43.39
2023-04-07T03:03:35.615Z,43.56
2023-04-07T03:06:10.495Z,43.79
2023-04-07T03:08:50.638Z,43.84
2023-04-07T03:11:24.903Z,43.62
2023-04-07T03:13:56.701Z,43.77
2023-04-07T03:16:27.671Z,43.28
2023-04-07T03:19:18.924Z,44.02
2023-04-07T03:21:57.467Z,43.20
2023-04-07T03:24:32.995Z,43.48
2023-04-07T03:27:05.341Z,44.12
2023-04-07T03:29:54.821Z,43.28
2023-04-07T03:32:26.973Z,44.07
2023-04-07T03:34:57.232Z,44.22
2023-04-07T03:37:34.130Z,43.76
2023-04-07T03:40:05.893Z,43.55
2023-04-07T03:42:38.110Z,43.88
2023-04-07T03:45:20.672Z,43.64
2023-04-07T03:47:56.333Z,43.98
2023-04-07T03:50:29.351Z,43.94
2023-04-07T03:53:21.077Z,44.06
2023-04-07T03:55:52.358Z,43.19
2023-04-07T03:58:56.761Z,43.60
2023-04-07T04:01:56.611Z,44.17
2023-04-07T04:04:25.989Z,44.47
2023-04-07T04:07:04.419Z,43.93
2023-04-07T04:09:51.981Z,44.00
2023-04-07T04:12:33.871Z,43.66
2023-04-07T04:15:18.347Z,44.21
2023-04-07T04:17:49.578Z,43.94
2023-04-07T04:20:28.619Z,44.23
2023-04-07T04:23:02.764Z,44.18
2023-04-07T04:25:34.510Z,43.67
2023-04-07T04:28:10.714Z,44.70
2023-04-07T04:30:42.640Z,44.68
2023-04-07T04:33:12.348Z,44.05
2023-04-07T04:36:01.594Z,43.99
2023-04-07T04:38:33.720Z,43.88
2023-04-07T04:41:08.414Z,43.84
2023-04-07T04:43:39.965Z,43.64
2023-04-07T04:46:13.068Z,44.18
2023-04-07T04:48:48.638Z,44.20
2023-04-07T04:51:27.172Z,44.33
2023-04-07T04:54:07.430Z,43.84
2023-04-07T04:56:49.377Z,43.31
2023-04-07T04:59:26.381Z,43.58
2023-04-07T05:02:03.304Z,43.51
2023-04-07T05:04:36.796Z,43.22
2023-04-07T05:07:27.191Z,43.19
2023-04-07T05:09:57.693Z,43.74
2023-04-07T05:12:28.785Z,43.96
2023-04-07T05:15:05.200Z,43.52
2023-04-07T05:17:39.994Z,44.29
2023-04-07T05:20:24.332Z,43.42
2023-04-07T05:22:52.839Z,43.66
2023-04-07T05:25:28.306Z,43.77
2023-04-07T05:28:05.787Z,43.13
2023-04-07T05:30:36.855Z,43.42
2023-04-07T05:33:08.897Z,42.79
2023-04-07T05:35:57.333Z,43.45
2023-04-07T05:38:35.946Z,43.92
2023-04-07T05:41:17.915Z,43.02
2023-04-07T05:43:47.609Z,43.08
2023-04-07T05:46:20.984Z,43.47
2023-04-07T05:48:55.821Z,43.70
2023-04-07T05:51:26.390Z,43.12
2023-04-07T05:53:58.044Z,43.23
2023-04-07T05:56:32.135Z,43.84
2023-04-07T05:59:03.720Z,43.20
2023-04-07T06:01:40.254Z,43.20
2023-04-07T06:04:21.880Z,43.33
2023-04-07T06:07:05.091Z,43.35
2023-04-07T06:09:42.377Z,43.68
2023-04-07T06:12:16.301Z,43.63
2023-04-07T06:14:51.148Z,43.53
2023-04-07T06:17:20.147Z,42.90
2023-04-07T06:19:50.056Z,43.13
2023-04-07T06:22:26.961Z,43.32
2023-04-07T06:24:55.802Z,44.04
2023-04-07T06:27:39.601Z,43.31
2023-04-07T06:30:11.579Z,42.77
2023-04-07T06:32:41.222Z,43.20
2023-04-07T06:35:16.740Z,42.36
2023-04-07T06:37:48.819Z,42.53
2023-04-07T06:40:25.940Z,42.92
2023-04-07T06:43:02.171Z,42.60
2023-04-07T06:45:42.224Z,42.88
2023-04-07T06:48:13.234Z,42.18
2023-04-07T06:50:49.260Z,42.83
2023-04-07T06:53:20.223Z,42.09
2023-04-07T06:55:48.766Z,42.36
2023-04-07T06:58:25.079Z,42.65
2023-04-07T07:00:56.032Z,42.42
2023-04-07T07:03:27.894Z,42.47
2023-04-07T07:05:59.971Z,42.00
2023-04-07T07:08:31.412Z,42.89
2023-04-07T07:11:03.178Z,42.59
2023-04-07T07:13:43.127Z,42.11
2023-04-07T07:16:17.010Z,42.40
2023-04-07T07:18:47.761Z,42.04
2023-04-07T07:21:28.470Z,42.66
2023-04-07T07:24:05.802Z,42.38
2023-04-07T07:26:34.963Z,42.95
2023-04-07T07:29:08.859Z,41.95
2023-04-07T07:31:42.005Z,42.72
2023-04-07T07:34:11.547Z,42.48
2023-04-07T07:36:53.156Z,41.94
2023-04-07T07:39:24.752Z,42.12
2023-04-07T07:41:56.636Z,42.70
2023-04-07T07:44:33.847Z,42.84
2023-04-07T07:47:04.573Z,42.65
2023-04-07T07:49:44.039Z,43.30
2023-04-07T07:52:21.639Z,43.25
2023-04-07T07:54:54.718Z,42.67
2023-04-07T07:57:25.028Z,42.95
2023-04-07T07:59:56.045Z,42.49
2023-04-07T08:02:29.941Z,42.81
2023-04-07T08:05:01.780Z,42.71
2023-04-07T08:07:30.788Z,42.48
2023-04-07T08:10:01.404Z,42.88
2023-04-07T08:12:31.431Z,42.65
2023-04-07T08:15:05.166Z,42.68
2023-04-07T08:17:34.147Z,42.21
2023-04-07T08:20:05.776Z,42.29
2023-04-07T08:22:38.745Z,42.78
2023-04-07T08:25:10.707Z,42.40
2023-04-07T08:27:42.282Z,42.69
2023-04-07T08:30:18.518Z,42.51
2023-04-07T08:32:46.930Z,42.24
2023-04-07T08:35:27.160Z,42.58
2023-04-07T08:37:58.659Z,42.03
2023-04-07T08:40:35.691Z,42.72
2023-04-07T08:43:20.457Z,42.23
2023-04-07T08:45:53.627Z,42.41
2023-04-07T08:48:28.890Z,41.96
2023-04-07T08:50:58.782Z,41.69
2023-04-07T08:53:32.968Z,41.82
2023-04-07T08:56:03.694Z,42.04
2023-04-07T08:58:32.986Z,42.48
2023-04-07T09:01:06.336Z,42.11
2023-04-07T09:03:39.709Z,41.71
2023-04-07T09:06:07.932Z,41.84
2023-04-07T09:08:42.012Z,41.52
2023-04-07T09:11:18.518Z,41.39
2023-04-07T09:13:59.309Z,41.62
2023-04-07T09:16:31.993Z,41.21
2023-04-07T09:19:02.826Z,41.37
2023-04-07T09:21:56.055Z,41.44
2023-04-07T09:24:26.958Z,41.33
2023-04-07T09:27:16.486Z,40.85
2023-04-07T09:29:56.629Z,41.07
2023-04-07T09:32:42.084Z,41.48
2023-04-07T09:35:21.606Z,40.87
2023-04-07T09:38:15.636Z,40.33
2023-04-07T09:40:48.621Z,40.44
2023-04-07T09:43:21.730Z,40.30
2023-04-07T09:45:50.862Z,39.77
2023-04-07T09:48:21.871Z,38.90
2023-04-07T09:50:54.219Z,39.39
2023-04-07T09:53:30.220Z,39.42
2023-04-07T09:56:04.314Z,39.91
2023-04-07T09:58:43.081Z,39.47
2023-04-07T10:01:14.662Z,39.92
2023-04-07T10:03:52.089Z,40.12
2023-04-07T10:06:24.670Z,40.25
2023-04-07T10:08:56.150Z,39.68
2023-04-07T10:11:29.289Z,39.63
2023-04-07T10:13:58.084Z,39.63
2023-04-07T10:16:29.853Z,39.68
2023-04-07T10:19:01.983Z,38.86
2023-04-07T10:21:40.160Z,39.32
2023-04-07T10:24:22.637Z,39.35
2023-04-07T10:26:54.751Z,39.79
2023-04-07T10:29:23.373Z,39.47
2023-04-07T10:31:55.078Z,39.94
2023-04-07T10:35:01.288Z,39.58
2023-04-07T10:37:36.696Z,39.46
2023-04-07T10:40:36.233Z,39.77
2023-04-07T10:43:11.631Z,39.76
2023-04-07T10:45:54.538Z,40.21
2023-04-07T10:48:23.429Z,39.72
2023-04-07T10:51:28.635Z,40.04
2023-04-07T10:54:26.789Z,39.95
2023-04-07T10:57:10.163Z,39.61
2023-04-07T10:59:47.604Z,39.69
2023-04-07T11:02:42.990Z,39.68
2023-04-07T11:05:28.545Z,40.18
2023-04-07T11:07:59.818Z,40.40
2023-04-07T11:10:34.517Z,40.66
2023-04-07T11:13:11.481Z,41.37
2023-04-07T11:15:42.870Z,41.80
2023-04-07T11:18:23.955Z,41.03
2023-04-07T11:20:54.475Z,41.67
2023-04-07T11:23:25.510Z,41.61
2023-04-07T11:26:03.123Z,41.83
2023-04-07T11:28:32.822Z,41.46
2023-04-07T11:31:01.237Z,40.76
2023-04-07T11:33:31.484Z,40.64
2023-04-07T11:36:02.388Z,40.54
2023-04-07T11:38:38.865Z,40.42
2023-04-07T11:41:24.569Z,40.20
2023-04-07T11:44:10.853Z,39.92
2023-04-07T11:46:55.172Z,39.71
2023-04-07T11:49:24.325Z,39.44
2023-04-07T11:52:03.170Z,39.64
2023-04-07T11:54:44.299Z,38.81
2023-04-07T11:57:28.210Z,38.63
2023-04-07T12:00:11.666Z,38.55
2023-04-07T12:02:39.949Z,39.00
2023-04-07T12:05:11.051Z,38.79
2023-04-07T12:07:43.103Z,38.38
2023-04-07T12:10:27.860Z,38.67
2023-04-07T12:13:10.992Z,38.79
2023-04-07T12:15:45.073Z,38.55
2023-04-07T12:18:17.596Z,38.04
2023-04-07T12:20:55.646Z,38.84
2023-04-07T12:23:27.347Z,38.98
2023-04-07T12:25:57.369Z,39.32
2023-04-07T12:28:38.845Z,39.01
2023-04-07T12:31:07.159Z,39.78
2023-04-07T12:33:41.093Z,39.94
2023-04-07T12:36:09.656Z,40.19
2023-04-07T12:38:39.020Z,39.84
2023-04-07T12:41:08.003Z,39.46
2023-04-07T12:43:37.694Z,39.51
2023-04-07T12:46:05.758Z,41.25
2023-04-07T12:48:45.099Z,39.59
2023-04-07T12:51:13.262Z,39.67
2023-04-07T12:53:45.148Z,39.27
2023-04-07T12:56:21.350Z,39.32
2023-04-07T12:58:54.553Z,39.01
2023-04-07T13:01:23.694Z,40.13
2023-04-07T13:03:53.895Z,42.25
2023-04-07T13:06:23.587Z,43.52
2023-04-07T13:08:53.399Z,44.18
2023-04-07T13:11:22.188Z,44.25
2023-04-07T13:14:05.605Z,44.09
2023-04-07T13:16:35.552Z,44.57
2023-04-07T13:19:05.972Z,45.00
2023-04-07T13:21:46.082Z,45.55
2023-04-07T13:24:31.048Z,45.24
2023-04-07T13:27:01.503Z,45.50
2023-04-07T13:29:32.167Z,45.42
2023-04-07T13:32:06.959Z,45.59
2023-04-07T13:34:39.520Z,45.18
2023-04-07T13:37:08.920Z,45.23
2023-04-07T13:39:38.352Z,45.12
2023-04-07T13:42:12.590Z,44.90
2023-04-07T13:44:54.654Z,45.63
2023-04-07T13:47:25.696Z,46.09
2023-04-07T13:49:54.865Z,46.80
2023-04-07T13:52:25.306Z,46.85
2023-04-07T13:54:58.137Z,46.85
2023-04-07T13:57:28.787Z,47.94
2023-04-07T14:00:00.219Z,48.59
2023-04-07T14:02:32.953Z,48.24
2023-04-07T14:05:02.359Z,49.58
2023-04-07T14:07:33.591Z,49.58
2023-04-07T14:10:05.255Z,49.15
2023-04-07T14:12:34.718Z,50.02
2023-04-07T14:15:18.523Z,48.88
2023-04-07T14:17:47.395Z,48.91
2023-04-07T14:20:16.964Z,49.24
2023-04-07T14:22:49.005Z,49.69
2023-04-07T14:25:20.342Z,50.53
2023-04-07T14:27:59.846Z,50.46
2023-04-07T14:30:34.374Z,50.66
2023-04-07T14:33:05.155Z,51.06
2023-04-07T14:35:36.972Z,51.02
2023-04-07T14:38:05.506Z,51.36
2023-04-07T14:40:39.511Z,53.21
2023-04-07T14:43:10.313Z,53.86
2023-04-07T14:45:48.287Z,54.16
2023-04-07T14:48:27.386Z,54.43
2023-04-07T14:51:10.265Z,54.19
2023-04-07T14:53:47.333Z,53.76
2023-04-07T14:56:18.459Z,54.39
2023-04-07T14:58:55.012Z,53.75
2023-04-07T15:01:27.186Z,54.44
2023-04-07T15:03:56.635Z,53.31
2023-04-07T15:06:26.461Z,53.95
2023-04-07T15:08:55.827Z,53.52
2023-04-07T15:11:28.591Z,52.72
2023-04-07T15:13:57.910Z,52.20
2023-04-07T15:16:32.424Z,50.72
2023-04-07T15:19:01.837Z,50.74
2023-04-07T15:21:31.034Z,50.47
2023-04-07T15:24:09.547Z,50.27
2023-04-07T15:26:45.793Z,50.38
2023-04-07T15:29:17.523Z,49.96
2023-04-07T15:31:51.540Z,50.14
2023-04-07T15:34:21.598Z,51.79
2023-04-07T15:36:55.650Z,52.72
2023-04-07T15:39:25.137Z,53.20
2023-04-07T15:41:55.844Z,53.83
2023-04-07T15:44:30.470Z,54.46
2023-04-07T15:47:06.065Z,54.05
2023-04-07T15:49:37.582Z,55.11
2023-04-07T15:52:07.732Z,55.19
2023-04-07T15:54:38.887Z,55.46
2023-04-07T15:57:09.736Z,56.05
2023-04-07T15:59:40.511Z,55.90
2023-04-07T16:02:13.001Z,56.70
2023-04-07T16:04:44.681Z,57.63
2023-04-07T16:07:16.644Z,58.80
2023-04-07T16:09:47.633Z,59.19
2023-04-07T16:12:16.846Z,59.08
2023-04-07T16:14:50.368Z,60.00
2023-04-07T16:17:23.203Z,60.20
2023-04-07T16:19:52.836Z,59.72
2023-04-07T16:22:25.565Z,60.07
2023-04-07T16:25:02.061Z,60.63
2023-04-07T16:27:30.212Z,60.56
2023-04-07T16:29:59.871Z,61.34
2023-04-07T16:32:32.369Z,60.81
2023-04-07T16:35:01.846Z,59.84
2023-04-07T16:37:33.465Z,60.76
2023-04-07T16:40:12.023Z,61.64
2023-04-07T16:42:41.430Z,61.53
2023-04-07T16:45:14.126Z,61.06
2023-04-07T16:47:52.382Z,60.29
2023-04-07T16:50:24.976Z,60.80
2023-04-07T16:52:54.897Z,60.59
2023-04-07T16:55:26.656Z,61.03
2023-04-07T16:57:56.269Z,59.38
2023-04-07T17:00:27.923Z,60.04
2023-04-07T17:03:03.175Z,60.32
2023-04-07T17:05:39.869Z,60.17
2023-04-07T17:08:08.508Z,59.92
2023-04-07T17:10:40.410Z,59.94
2023-04-07T17:13:10.808Z,59.27
2023-04-07T17:15:40.373Z,59.03
2023-04-07T17:18:12.977Z,58.93
2023-04-07T17:20:44.501Z,57.97
2023-04-07T17:23:14.764Z,58.77
2023-04-07T17:25:44.420Z,59.73
2023-04-07T17:28:12.826Z,59.75
2023-04-07T17:30:50.734Z,59.72
2023-04-07T17:33:20.438Z,59.47
2023-04-07T17:35:50.913Z,59.81
2023-04-07T17:38:21.822Z,59.39
2023-04-07T17:41:01.901Z,59.93
2023-04-07T17:43:32.989Z,61.09
2023-04-07T17:46:02.301Z,61.10
2023-04-07T17:48:36.250Z,61.38
2023-04-07T17:51:05.887Z,61.23
2023-04-07T17:53:39.677Z,60.59
2023-04-07T17:56:15.050Z,60.59
2023-04-07T17:58:46.224Z,60.65
2023-04-07T18:01:17.306Z,60.67
2023-04-07T18:03:53.139Z,61.04
2023-04-07T18:06:24.184Z,61.47
2023-04-07T18:09:00.630Z,61.14
2023-04-07T18:11:30.265Z,61.38
2023-04-07T18:14:00.860Z,61.52
2023-04-07T18:16:30.387Z,61.70
2023-04-07T18:19:03.003Z,61.35
2023-04-07T18:21:32.558Z,61.22
2023-04-07T18:24:17.279Z,61.89
2023-04-07T18:26:58.069Z,62.82
2023-04-07T18:29:35.071Z,62.77
2023-04-07T18:32:05.090Z,62.81
2023-04-07T18:34:43.888Z,63.22
2023-04-07T18:37:14.499Z,63.17
2023-04-07T18:39:48.694Z,63.44
2023-04-07T18:42:20.352Z,63.79
2023-04-07T18:44:51.132Z,63.82
2023-04-07T18:47:25.230Z,63.83
2023-04-07T18:50:00.502Z,63.89
2023-04-07T18:52:34.590Z,64.64
2023-04-07T18:55:03.088Z,64.07
2023-04-07T18:57:32.560Z,64.23
2023-04-07T19:00:04.162Z,64.52
2023-04-07T19:02:47.013Z,65.31
2023-04-07T19:05:25.155Z,65.18
2023-04-07T19:07:56.326Z,65.65
2023-04-07T19:10:30.894Z,64.94
2023-04-07T19:13:09.915Z,65.99
2023-04-07T19:15:46.121Z,66.50
2023-04-07T19:18:28.646Z,65.78
2023-04-07T19:21:09.557Z,66.69
2023-04-07T19:23:50.270Z,66.31
2023-04-07T19:26:23.356Z,66.78
2023-04-07T19:28:54.423Z,67.05
2023-04-07T19:31:28.712Z,65.66
2023-04-07T19:34:00.641Z,67.39
2023-04-07T19:36:33.378Z,67.28
2023-04-07T19:39:08.808Z,66.83
2023-04-07T19:42:04.171Z,67.69
2023-04-07T19:44:38.720Z,67.75
2023-04-07T19:47:10.406Z,68.14
2023-04-07T19:49:39.545Z,67.50
2023-04-07T19:52:14.692Z,67.08
2023-04-07T19:54:52.354Z,67.62
2023-04-07T19:57:26.426Z,68.54
2023-04-07T20:00:04.238Z,67.95
2023-04-07T20:02:37.219Z,68.68
2023-04-07T20:05:07.292Z,69.07
2023-04-07T20:07:51.258Z,68.16
2023-04-07T20:10:22.431Z,69.07
2023-04-07T20:12:54.211Z,68.14
2023-04-07T20:15:27.026Z,69.43
2023-04-07T20:17:58.525Z,69.01
2023-04-07T20:20:35.152Z,69.34
2023-04-07T20:23:16.665Z,68.59
2023-04-07T20:25:47.018Z,69.12
2023-04-07T20:28:19.695Z,69.54
2023-04-07T20:30:49.120Z,69.00
2023-04-07T20:33:18.145Z,68.83
2023-04-07T20:35:47.696Z,69.73
2023-04-07T20:38:21.276Z,69.36
2023-04-07T20:40:57.870Z,69.33
2023-04-07T20:43:27.625Z,69.56
2023-04-07T20:45:56.204Z,69.35
2023-04-07T20:48:27.295Z,69.79
2023-04-07T20:51:05.720Z,70.18
2023-04-07T20:53:37.645Z,69.93
2023-04-07T20:56:08.361Z,69.71
2023-04-07T20:58:39.485Z,69.90
2023-04-07T21:01:09.380Z,70.55
2023-04-07T21:03:42.276Z,70.81
2023-04-07T21:06:11.483Z,70.60
2023-04-07T21:08:41.676Z,70.82
2023-04-07T21:11:11.689Z,71.21
2023-04-07T21:13:41.200Z,70.49
2023-04-07T21:16:11.070Z,70.38
2023-04-07T21:18:39.885Z,70.58
2023-04-07T21:21:09.158Z,70.43
2023-04-07T21:23:41.634Z,70.25
2023-04-07T21:26:22.029Z,71.11
2023-04-07T21:28:59.529Z,70.85
2023-04-07T21:31:31.327Z,70.85
2023-04-07T21:34:00.430Z,70.84
2023-04-07T21:36:33.642Z,70.87
2023-04-07T21:39:05.558Z,71.93
2023-04-07T21:41:44.200Z,71.67
2023-04-07T21:44:20.083Z,71.83
2023-04-07T21:46:50.880Z,70.90
2023-04-07T21:49:29.016Z,71.47
2023-04-07T21:52:00.974Z,71.29
2023-04-07T21:54:30.098Z,71.58
2023-04-07T21:57:06.874Z,71.82
2023-04-07T21:59:46.324Z,71.75
2023-04-07T22:02:17.603Z,73.18
2023-04-07T22:04:45.921Z,74.06
2023-04-07T22:07:15.500Z,75.37
2023-04-07T22:09:46.244Z,76.32
2023-04-07T22:12:24.153Z,77.20
2023-04-07T22:14:53.978Z,77.59
2023-04-07T22:17:26.787Z,78.87
2023-04-07T22:19:57.257Z,78.65
2023-04-07T22:22:28.776Z,81.60
2023-04-07T22:24:57.965Z,80.84
2023-04-07T22:27:41.284Z,83.22
2023-04-07T22:30:15.371Z,85.67
2023-04-07T22:32:46.193Z,86.88
2023-04-07T22:35:17.042Z,88.34
2023-04-07T22:37:48.398Z,89.20
2023-04-07T22:40:19.306Z,90.81
2023-04-07T22:42:56.877Z,92.04
2023-04-07T22:45:28.305Z,92.09
2023-04-07T22:47:59.159Z,93.47
2023-04-07T22:50:28.536Z,94.28
2023-04-07T22:52:59.626Z,94.67
2023-04-07T22:55:29.482Z,95.95
2023-04-07T22:58:04.242Z,96.55
2023-04-07T23:00:36.289Z,95.46
2023-04-07T23:03:06.297Z,97.00
2023-04-07T23:05:35.181Z,98.48
2023-04-07T23:08:05.328Z,98.68
2023-04-07T23:10:38.317Z,98.91
2023-04-07T23:13:22.088Z,99.91
2023-04-07T23:15:53.244Z,100.00
2023-04-07T23:18:22.574Z,100.00
2023-04-07T23:20:53.434Z,100.00
2023-04-07T23:23:24.192Z,100.00
2023-04-07T23:25:52.875Z,100.00
2023-04-07T23:28:29.000Z,100.00
2023-04-07T23:31:05.834Z,100.00
2023-04-07T23:33:35.509Z,100.00
2023-04-07T23:36:04.820Z,100.00
2023-04-07T23:38:37.047Z,100.00
2023-04-07T23:41:08.592Z,100.00
2023-04-07T23:43:54.059Z,100.00
2023-04-07T23:46:28.267Z,100.00
2023-04-07T23:48:59.113Z,100.00
2023-04-07T23:51:28.294Z,100.00
2023-04-07T23:53:58.116Z,100.00
2023-04-07T23:56:29.881Z,100.00
2023-04-07T23:59:07.423Z,100.00
